createdAt,value
2023-05-10T00:00:35.447Z,5.87
2023-05-10T00:03:12.005Z,5.87
2023-05-10T00:05:40.304Z,5.86
2023-05-10T00:08:08.678Z,5.83
2023-05-10T00:10:38.492Z,5.82
2023-05-10T00:13:06.736Z,5.77
2023-05-10T00:15:35.873Z,5.72
2023-05-10T00:18:04.320Z,5.69
2023-05-10T00:20:32.616Z,5.72
2023-05-10T00:23:00.903Z,5.71
2023-05-10T00:25:29.075Z,5.70
2023-05-10T00:27:58.407Z,5.63
2023-05-10T00:30:26.765Z,5.57
2023-05-10T00:32:55.061Z,5.48
2023-05-10T00:35:23.900Z,5.40
2023-05-10T00:37:52.096Z,5.38
2023-05-10T00:40:20.321Z,5.42
2023-05-10T00:42:50.701Z,5.45
2023-05-10T00:45:18.879Z,5.45
2023-05-10T00:47:47.506Z,5.45
2023-05-10T00:50:16.792Z,5.45
2023-05-10T00:52:45.356Z,5.45
2023-05-10T00:55:13.721Z,5.42
2023-05-10T00:57:42.823Z,5.39
2023-05-10T01:00:12.529Z,5.40
2023-05-10T01:02:42.623Z,5.39
2023-05-10T01:05:10.987Z,5.37
2023-05-10T01:07:39.804Z,5.34
2023-05-10T01:10:09.640Z,5.33
2023-05-10T01:12:40.890Z,5.34
2023-05-10T01:15:12.067Z,5.34
2023-05-10T01:17:43.161Z,5.33
2023-05-10T01:20:12.990Z,5.35
2023-05-10T01:23:26.101Z,5.35
2023-05-10T01:26:15.269Z,5.33
2023-05-10T01:29:21.638Z,5.32
2023-05-10T01:32:07.933Z,5.32
2023-05-10T01:34:42.564Z,5.31
2023-05-10T01:37:16.797Z,5.31
2023-05-10T01:39:55.818Z,5.35
2023-05-10T01:42:29.993Z,5.36
2023-05-10T01:45:08.643Z,5.36
2023-05-10T01:47:43.258Z,5.36
2023-05-10T01:50:17.897Z,5.35
2023-05-10T01:52:52.512Z,5.33
2023-05-10T01:55:24.463Z,5.31
2023-05-10T01:58:07.036Z,5.31
2023-05-10T02:00:36.698Z,5.33
2023-05-10T02:03:09.107Z,5.33
2023-05-10T02:05:40.843Z,5.31
2023-05-10T02:08:10.855Z,5.27
2023-05-10T02:10:40.665Z,5.25
2023-05-10T02:13:11.352Z,5.23
2023-05-10T02:15:41.195Z,5.21
2023-05-10T02:18:12.040Z,5.14
2023-05-10T02:20:40.730Z,5.09
2023-05-10T02:23:10.944Z,5.11
2023-05-10T02:25:40.540Z,5.10
2023-05-10T02:28:09.990Z,5.09
2023-05-10T02:30:38.756Z,5.07
2023-05-10T02:33:08.672Z,5.06
2023-05-10T02:35:39.514Z,5.04
2023-05-10T02:38:10.375Z,5.02
2023-05-10T02:40:40.088Z,4.99
2023-05-10T02:43:13.343Z,5.01
2023-05-10T02:45:42.848Z,5.01
2023-05-10T02:48:11.473Z,5.02
2023-05-10T02:50:45.147Z,5.01
2023-05-10T02:53:20.472Z,5.00
2023-05-10T02:55:53.029Z,5.00
2023-05-10T02:58:22.762Z,4.99
2023-05-10T03:00:50.931Z,4.99
2023-05-10T03:03:19.524Z,5.06
2023-05-10T03:05:47.814Z,5.10
2023-05-10T03:08:16.489Z,5.14
2023-05-10T03:11:14.260Z,5.17
2023-05-10T03:14:09.989Z,5.19
2023-05-10T03:16:48.254Z,5.19
2023-05-10T03:19:28.746Z,5.19
2023-05-10T03:22:01.346Z,5.23
2023-05-10T03:24:31.577Z,5.34
2023-05-10T03:27:03.928Z,5.45
2023-05-10T03:29:33.127Z,5.57
2023-05-10T03:32:01.598Z,5.70
2023-05-10T03:34:32.686Z,5.86
2023-05-10T03:37:01.016Z,6.02
2023-05-10T03:39:30.241Z,6.14
2023-05-10T03:41:59.921Z,6.27
2023-05-10T03:44:28.308Z,6.46
2023-05-10T03:46:58.216Z,6.62
2023-05-10T03:49:26.497Z,6.78
2023-05-10T03:51:54.675Z,6.89
2023-05-10T03:54:22.859Z,7.01
2023-05-10T03:56:50.981Z,7.15
2023-05-10T03:59:19.514Z,7.27
2023-05-10T04:01:47.710Z,7.39
2023-05-10T04:04:16.725Z,7.58
2023-05-10T04:06:46.107Z,7.78
2023-05-10T04:09:14.876Z,7.98
2023-05-10T04:11:43.138Z,8.17
2023-05-10T04:14:11.623Z,8.36
2023-05-10T04:16:39.844Z,8.56
2023-05-10T04:19:08.172Z,8.76
2023-05-10T04:21:36.246Z,8.97
2023-05-10T04:24:04.816Z,9.17
2023-05-10T04:26:32.899Z,9.42
2023-05-10T04:29:01.174Z,9.65
2023-05-10T04:31:29.635Z,9.88
2023-05-10T04:33:57.828Z,10.10
2023-05-10T04:36:26.018Z,10.32
2023-05-10T04:38:54.383Z,10.52
2023-05-10T04:41:22.446Z,10.74
2023-05-10T04:43:50.620Z,10.92
2023-05-10T04:46:18.839Z,11.14
2023-05-10T04:48:47.078Z,11.34
2023-05-10T04:51:15.248Z,11.55
2023-05-10T04:53:46.612Z,11.77
2023-05-10T04:56:23.274Z,12.07
2023-05-10T04:58:51.342Z,12.27
2023-05-10T05:01:19.650Z,12.51
2023-05-10T05:03:48.026Z,12.71
2023-05-10T05:06:16.478Z,12.90
2023-05-10T05:08:44.661Z,13.09
2023-05-10T05:11:12.708Z,13.30
2023-05-10T05:13:40.801Z,13.49
2023-05-10T05:16:09.085Z,13.61
2023-05-10T05:18:37.359Z,13.80
2023-05-10T05:21:16.309Z,13.95
2023-05-10T05:23:44.921Z,14.16
2023-05-10T05:26:13.259Z,14.35
2023-05-10T05:28:41.445Z,14.55
2023-05-10T05:31:09.871Z,14.75
2023-05-10T05:33:38.785Z,14.94
2023-05-10T05:36:07.283Z,15.09
2023-05-10T05:38:35.548Z,15.22
2023-05-10T05:41:04.117Z,15.49
2023-05-10T05:43:32.200Z,15.53
2023-05-10T05:46:00.505Z,15.47
2023-05-10T05:48:30.388Z,15.74
2023-05-10T05:50:58.974Z,15.88
2023-05-10T05:53:27.360Z,15.89
2023-05-10T05:55:57.273Z,15.89
2023-05-10T05:58:26.712Z,16.24
2023-05-10T06:00:55.176Z,16.36
2023-05-10T06:03:23.530Z,16.33
2023-05-10T06:05:51.813Z,16.60
2023-05-10T06:08:19.894Z,16.73
2023-05-10T06:10:48.056Z,16.89
2023-05-10T06:13:16.800Z,16.74
2023-05-10T06:15:44.965Z,16.96
2023-05-10T06:18:13.235Z,16.95
2023-05-10T06:20:43.020Z,16.91
2023-05-10T06:23:11.180Z,17.31
2023-05-10T06:25:39.424Z,17.48
2023-05-10T06:28:07.761Z,17.36
2023-05-10T06:30:37.665Z,17.24
2023-05-10T06:33:06.179Z,17.49
2023-05-10T06:35:35.348Z,17.57
2023-05-10T06:38:03.626Z,17.27
2023-05-10T06:40:31.702Z,16.95
2023-05-10T06:42:59.848Z,16.74
2023-05-10T06:45:28.023Z,16.91
2023-05-10T06:47:56.340Z,17.36
2023-05-10T06:50:24.675Z,17.95
2023-05-10T06:52:53.232Z,18.25
2023-05-10T06:55:21.553Z,18.54
2023-05-10T06:57:52.812Z,18.33
2023-05-10T07:00:21.591Z,17.79
2023-05-10T07:02:50.214Z,17.49
2023-05-10T07:05:18.909Z,17.26
2023-05-10T07:07:47.474Z,17.35
2023-05-10T07:10:15.917Z,16.98
2023-05-10T07:12:44.345Z,17.17
2023-05-10T07:15:12.566Z,17.10
2023-05-10T07:17:43.068Z,16.97
2023-05-10T07:20:12.920Z,16.88
2023-05-10T07:22:41.388Z,16.86
2023-05-10T07:25:10.188Z,16.74
2023-05-10T07:27:41.322Z,16.53
2023-05-10T07:30:10.267Z,16.82
2023-05-10T07:32:38.589Z,17.53
2023-05-10T07:35:07.913Z,17.83
2023-05-10T07:37:36.127Z,18.01
2023-05-10T07:40:04.852Z,18.30
2023-05-10T07:42:33.129Z,18.87
2023-05-10T07:45:01.305Z,19.20
2023-05-10T07:47:29.450Z,19.23
2023-05-10T07:49:57.695Z,19.67
2023-05-10T07:52:26.037Z,19.81
2023-05-10T07:54:54.813Z,19.85
2023-05-10T07:57:22.991Z,19.72
2023-05-10T07:59:51.173Z,19.96
2023-05-10T08:02:19.488Z,20.17
2023-05-10T08:04:47.820Z,19.97
2023-05-10T08:07:16.067Z,20.00
2023-05-10T08:09:44.384Z,19.95
2023-05-10T08:12:12.651Z,19.84
2023-05-10T08:14:41.848Z,19.76
2023-05-10T08:17:10.122Z,19.66
2023-05-10T08:19:38.198Z,19.74
2023-05-10T08:22:06.680Z,19.44
2023-05-10T08:24:39.356Z,19.06
2023-05-10T08:27:07.555Z,19.37
2023-05-10T08:29:49.020Z,19.50
2023-05-10T08:32:19.056Z,19.37
2023-05-10T08:34:47.314Z,19.14
2023-05-10T08:37:15.892Z,18.94
2023-05-10T08:39:44.064Z,18.75
2023-05-10T08:42:13.712Z,19.27
2023-05-10T08:44:42.881Z,19.68
2023-05-10T08:47:11.918Z,19.74
2023-05-10T08:49:40.968Z,19.95
2023-05-10T08:52:10.767Z,20.01
2023-05-10T08:54:39.377Z,19.48
2023-05-10T08:57:07.753Z,19.88
2023-05-10T08:59:35.919Z,20.29
2023-05-10T09:02:06.000Z,20.77
2023-05-10T09:04:34.178Z,20.59
2023-05-10T09:07:02.897Z,19.95
2023-05-10T09:09:32.265Z,20.10
2023-05-10T09:12:00.989Z,19.74
2023-05-10T09:14:29.774Z,19.25
2023-05-10T09:16:58.187Z,19.53
2023-05-10T09:19:26.438Z,20.14
2023-05-10T09:21:54.606Z,20.13
2023-05-10T09:24:27.872Z,19.26
2023-05-10T09:26:59.543Z,19.06
2023-05-10T09:29:27.733Z,19.21
2023-05-10T09:31:56.516Z,19.68
2023-05-10T09:34:32.523Z,19.78
2023-05-10T09:37:02.675Z,19.70
2023-05-10T09:39:40.187Z,20.04
2023-05-10T09:42:10.206Z,20.12
2023-05-10T09:44:39.412Z,20.28
2023-05-10T09:47:07.604Z,19.98
2023-05-10T09:49:36.171Z,19.80
2023-05-10T09:52:09.015Z,20.47
2023-05-10T09:54:37.587Z,20.17
2023-05-10T09:57:06.626Z,20.35
2023-05-10T09:59:36.452Z,20.54
2023-05-10T10:02:04.988Z,20.70
2023-05-10T10:04:33.985Z,20.53
2023-05-10T10:07:05.191Z,20.41
2023-05-10T10:09:36.042Z,20.39
2023-05-10T10:12:05.067Z,19.75
2023-05-10T10:14:33.266Z,20.02
2023-05-10T10:19:35.466Z,20.48
2023-05-10T10:22:03.991Z,20.10
2023-05-10T10:24:32.312Z,20.06
2023-05-10T10:27:29.877Z,20.13
2023-05-10T10:30:36.680Z,20.05
2023-05-10T10:33:28.951Z,19.78
2023-05-10T10:36:01.585Z,19.67
2023-05-10T10:38:52.788Z,19.89
2023-05-10T10:41:30.189Z,20.42
2023-05-10T10:44:27.472Z,20.46
2023-05-10T10:47:07.452Z,20.69
2023-05-10T10:49:42.126Z,20.34
2023-05-10T10:52:34.298Z,20.88
2023-05-10T10:55:02.755Z,21.01
2023-05-10T10:57:44.832Z,21.32
2023-05-10T11:00:28.391Z,20.54
2023-05-10T11:03:07.422Z,20.71
2023-05-10T11:05:47.674Z,20.82
2023-05-10T11:08:20.745Z,20.72
2023-05-10T11:11:08.341Z,19.75
2023-05-10T11:13:42.184Z,19.77
2023-05-10T11:16:18.081Z,19.91
2023-05-10T11:18:59.981Z,19.35
2023-05-10T11:21:28.924Z,19.43
2023-05-10T11:23:58.917Z,19.74
2023-05-10T11:26:36.828Z,19.72
2023-05-10T11:29:06.246Z,19.86
2023-05-10T11:31:35.335Z,19.66
2023-05-10T11:34:03.524Z,19.54
2023-05-10T11:36:37.146Z,19.74
2023-05-10T11:39:07.237Z,20.20
2023-05-10T11:41:35.515Z,19.80
2023-05-10T11:44:04.110Z,19.80
2023-05-10T11:46:32.778Z,19.95
2023-05-10T11:49:03.166Z,19.59
2023-05-10T11:51:36.215Z,19.93
2023-05-10T11:54:10.368Z,19.73
2023-05-10T11:56:40.428Z,19.56
2023-05-10T11:59:09.474Z,19.93
2023-05-10T12:01:37.812Z,19.96
2023-05-10T12:04:06.489Z,19.92
2023-05-10T12:06:41.637Z,19.84
2023-05-10T12:09:10.208Z,19.57
2023-05-10T12:11:43.872Z,19.87
2023-05-10T12:14:12.800Z,20.07
2023-05-10T12:16:41.399Z,20.41
2023-05-10T12:19:10.132Z,20.22
2023-05-10T12:21:40.157Z,19.80
2023-05-10T12:24:08.980Z,20.04
2023-05-10T12:26:38.075Z,19.92
2023-05-10T12:29:20.071Z,19.51
2023-05-10T12:31:57.074Z,19.39
2023-05-10T12:34:32.518Z,19.63
2023-05-10T12:37:02.228Z,19.94
2023-05-10T12:39:45.854Z,19.80
2023-05-10T12:42:14.152Z,20.07
2023-05-10T12:44:42.579Z,20.09
2023-05-10T12:47:10.780Z,20.07
2023-05-10T12:49:39.363Z,19.78
2023-05-10T12:52:07.784Z,19.79
2023-05-10T12:54:36.739Z,19.81
2023-05-10T12:57:05.007Z,19.56
2023-05-10T12:59:33.453Z,19.34
2023-05-10T13:02:02.589Z,19.15
2023-05-10T13:04:30.784Z,19.03
2023-05-10T13:07:00.219Z,18.86
2023-05-10T13:09:30.752Z,18.69
2023-05-10T13:11:59.182Z,18.61
2023-05-10T13:14:27.664Z,18.88
2023-05-10T13:16:56.002Z,19.07
2023-05-10T13:19:24.615Z,19.15
2023-05-10T13:21:52.893Z,19.14
2023-05-10T13:24:21.684Z,19.08
2023-05-10T13:26:49.864Z,19.17
2023-05-10T13:29:22.228Z,19.02
2023-05-10T13:31:50.749Z,18.66
2023-05-10T13:34:25.365Z,18.61
2023-05-10T13:36:55.001Z,18.66
2023-05-10T13:39:23.628Z,18.72
2023-05-10T13:41:52.344Z,18.61
2023-05-10T13:44:22.487Z,18.65
2023-05-10T13:46:51.131Z,18.73
2023-05-10T13:49:19.402Z,18.69
2023-05-10T13:51:48.089Z,18.70
2023-05-10T13:54:16.255Z,18.56
2023-05-10T13:56:45.158Z,18.44
2023-05-10T13:59:13.312Z,18.26
2023-05-10T14:01:42.387Z,17.89
2023-05-10T14:04:11.656Z,18.08
2023-05-10T14:06:40.010Z,18.16
2023-05-10T14:09:08.693Z,18.05
2023-05-10T14:11:37.081Z,17.90
2023-05-10T14:14:06.165Z,17.76
2023-05-10T14:16:34.388Z,17.42
2023-05-10T14:19:02.930Z,17.10
2023-05-10T14:21:31.913Z,17.04
2023-05-10T14:24:00.189Z,16.98
2023-05-10T14:26:28.571Z,16.96
2023-05-10T14:28:56.894Z,16.74
2023-05-10T14:31:26.816Z,16.51
2023-05-10T14:33:55.146Z,16.35
2023-05-10T14:36:23.828Z,16.34
2023-05-10T14:38:52.825Z,16.20
2023-05-10T14:41:21.196Z,15.99
2023-05-10T14:43:49.527Z,15.90
2023-05-10T14:46:18.327Z,15.78
2023-05-10T14:48:46.947Z,15.71
2023-05-10T14:51:15.373Z,15.63
2023-05-10T14:53:43.944Z,15.54
2023-05-10T14:56:12.183Z,15.32
2023-05-10T14:58:40.251Z,15.14
2023-05-10T15:01:08.675Z,15.05
2023-05-10T15:03:37.689Z,14.99
2023-05-10T15:06:07.236Z,14.82
2023-05-10T15:08:36.125Z,14.67
2023-05-10T15:11:04.402Z,14.51
2023-05-10T15:13:32.580Z,14.46
2023-05-10T15:16:01.311Z,14.43
2023-05-10T15:18:29.559Z,14.37
2023-05-10T15:20:59.145Z,14.35
2023-05-10T15:23:31.008Z,14.25
2023-05-10T15:25:59.178Z,14.26
2023-05-10T15:28:27.348Z,14.22
2023-05-10T15:30:56.493Z,14.11
2023-05-10T15:33:25.658Z,14.02
2023-05-10T15:35:54.796Z,13.92
2023-05-10T15:38:23.858Z,13.83
2023-05-10T15:40:52.116Z,13.78
2023-05-10T15:43:20.389Z,13.73
2023-05-10T15:45:48.669Z,13.65
2023-05-10T15:48:17.563Z,13.53
2023-05-10T15:50:46.139Z,13.50
2023-05-10T15:53:14.324Z,13.50
2023-05-10T15:55:42.593Z,13.44
2023-05-10T15:58:11.499Z,13.36
2023-05-10T16:00:39.706Z,13.27
2023-05-10T16:03:08.637Z,13.22
2023-05-10T16:05:37.032Z,13.16
2023-05-10T16:08:05.235Z,13.02
2023-05-10T16:10:33.588Z,12.94
2023-05-10T16:13:03.508Z,12.90
2023-05-10T16:15:31.786Z,12.85
2023-05-10T16:18:00.232Z,12.79
2023-05-10T16:20:30.195Z,12.74
2023-05-10T16:22:59.988Z,12.65
2023-05-10T16:25:28.169Z,12.56
2023-05-10T16:27:56.340Z,12.51
2023-05-10T16:30:29.732Z,12.44
2023-05-10T16:32:58.994Z,12.39
2023-05-10T16:35:27.719Z,12.32
2023-05-10T16:37:57.303Z,12.26
2023-05-10T16:40:25.938Z,12.19
2023-05-10T16:42:54.091Z,12.13
2023-05-10T16:45:22.258Z,12.06
2023-05-10T16:47:50.695Z,11.97
2023-05-10T16:50:19.027Z,11.86
2023-05-10T16:52:47.395Z,11.75
2023-05-10T16:55:15.784Z,11.66
2023-05-10T16:57:44.158Z,11.55
2023-05-10T17:00:13.055Z,11.48
2023-05-10T17:02:41.913Z,11.43
2023-05-10T17:05:10.724Z,11.33
2023-05-10T17:07:38.922Z,11.27
2023-05-10T17:10:07.790Z,11.21
2023-05-10T17:12:35.975Z,11.13
2023-05-10T17:15:05.335Z,11.05
2023-05-10T17:17:33.571Z,10.97
2023-05-10T17:20:02.961Z,10.89
2023-05-10T17:22:31.117Z,10.83
2023-05-10T17:24:59.298Z,10.80
2023-05-10T17:27:30.291Z,10.73
2023-05-10T17:29:59.379Z,10.66
2023-05-10T17:32:27.737Z,10.62
2023-05-10T17:34:56.190Z,10.57
2023-05-10T17:37:24.365Z,10.52
2023-05-10T17:39:52.543Z,10.49
2023-05-10T17:42:21.042Z,10.50
2023-05-10T17:44:49.299Z,10.48
2023-05-10T17:47:18.612Z,10.42
2023-05-10T17:49:46.977Z,10.37
2023-05-10T17:52:15.166Z,10.30
2023-05-10T17:54:45.997Z,10.25
2023-05-10T17:57:14.158Z,10.19
2023-05-10T17:59:42.567Z,10.13
2023-05-10T18:02:11.033Z,10.06
2023-05-10T18:04:43.250Z,10.02
2023-05-10T18:07:12.384Z,9.99
2023-05-10T18:09:40.562Z,9.93
2023-05-10T18:12:09.756Z,9.85
2023-05-10T18:14:41.135Z,9.79
2023-05-10T18:17:10.342Z,9.71
2023-05-10T18:19:38.594Z,9.63
2023-05-10T18:22:10.527Z,9.57
2023-05-10T18:24:41.580Z,9.51
2023-05-10T18:27:10.377Z,9.47
2023-05-10T18:29:39.778Z,9.47
2023-05-10T18:32:08.272Z,9.45
2023-05-10T18:34:36.544Z,9.41
2023-05-10T18:37:07.766Z,9.39
2023-05-10T18:39:39.255Z,9.38
2023-05-10T18:42:09.074Z,9.37
2023-05-10T18:44:37.320Z,9.36
2023-05-10T18:47:05.492Z,9.34
2023-05-10T18:49:35.097Z,9.33
2023-05-10T18:52:03.373Z,9.36
2023-05-10T18:54:31.554Z,9.35
2023-05-10T18:56:59.622Z,9.30
2023-05-10T18:59:30.867Z,9.23
2023-05-10T19:01:59.215Z,9.17
2023-05-10T19:04:27.477Z,9.13
2023-05-10T19:06:56.848Z,9.07
2023-05-10T19:09:27.150Z,9.00
2023-05-10T19:11:55.228Z,8.93
2023-05-10T19:14:25.154Z,8.86
2023-05-10T19:16:53.563Z,8.86
2023-05-10T19:19:24.303Z,8.83
2023-05-10T19:21:52.732Z,8.79
2023-05-10T19:24:24.348Z,8.78
2023-05-10T19:26:52.870Z,8.77
2023-05-10T19:29:21.045Z,8.76
2023-05-10T19:31:49.513Z,8.76
2023-05-10T19:34:18.787Z,8.75
2023-05-10T19:36:46.996Z,8.77
2023-05-10T19:39:15.482Z,8.82
2023-05-10T19:41:43.884Z,8.80
2023-05-10T19:44:12.141Z,8.74
2023-05-10T19:46:40.721Z,8.67
2023-05-10T19:49:08.998Z,8.59
2023-05-10T19:51:37.071Z,8.55
2023-05-10T19:54:05.244Z,8.48
2023-05-10T19:56:33.411Z,8.41
2023-05-10T19:59:03.534Z,8.35
2023-05-10T20:01:33.052Z,8.27
2023-05-10T20:04:01.379Z,8.24
2023-05-10T20:06:29.690Z,8.19
2023-05-10T20:08:57.764Z,8.16
2023-05-10T20:11:25.942Z,8.14
2023-05-10T20:13:54.118Z,8.12
2023-05-10T20:16:23.860Z,8.12
2023-05-10T20:18:54.763Z,8.09
2023-05-10T20:21:23.977Z,8.06
2023-05-10T20:23:52.568Z,8.01
2023-05-10T20:26:21.951Z,7.95
2023-05-10T20:28:51.045Z,7.90
2023-05-10T20:31:19.245Z,7.91
2023-05-10T20:33:47.397Z,7.89
2023-05-10T20:36:15.460Z,7.85
2023-05-10T20:38:43.536Z,7.83
2023-05-10T20:41:11.608Z,7.82
2023-05-10T20:43:39.784Z,7.78
2023-05-10T20:46:08.016Z,7.74
2023-05-10T20:48:36.345Z,7.71
2023-05-10T20:51:04.611Z,7.65
2023-05-10T20:53:32.986Z,7.60
2023-05-10T20:56:01.067Z,7.59
2023-05-10T20:58:29.237Z,7.56
2023-05-10T21:00:57.406Z,7.53
2023-05-10T21:03:25.443Z,7.50
2023-05-10T21:05:53.760Z,7.48
2023-05-10T21:08:22.032Z,7.46
2023-05-10T21:10:50.071Z,7.44
2023-05-10T21:13:18.072Z,7.41
2023-05-10T21:15:46.395Z,7.36
2023-05-10T21:18:14.360Z,7.32
2023-05-10T21:20:42.492Z,7.36
2023-05-10T21:23:10.777Z,7.39
2023-05-10T21:25:39.045Z,7.43
2023-05-10T21:28:07.231Z,7.44
2023-05-10T21:30:35.604Z,7.46
2023-05-10T21:33:04.075Z,7.48
2023-05-10T21:35:32.364Z,7.46
2023-05-10T21:38:00.534Z,7.43
2023-05-10T21:40:29.227Z,7.38
2023-05-10T21:42:57.395Z,7.32
2023-05-10T21:45:25.672Z,7.30
2023-05-10T21:47:53.771Z,7.24
2023-05-10T21:50:21.849Z,7.18
2023-05-10T21:52:50.095Z,7.10
2023-05-10T21:55:19.505Z,7.04
2023-05-10T21:57:47.784Z,6.96
2023-05-10T22:00:17.367Z,6.87
2023-05-10T22:02:46.880Z,6.78
2023-05-10T22:05:15.684Z,6.69
2023-05-10T22:07:43.848Z,6.60
2023-05-10T22:10:12.230Z,6.51
2023-05-10T22:12:40.502Z,6.46
2023-05-10T22:15:10.771Z,6.41
2023-05-10T22:17:40.637Z,6.35
2023-05-10T22:20:09.553Z,6.28
2023-05-10T22:22:37.920Z,6.23
2023-05-10T22:25:07.771Z,6.20
2023-05-10T22:27:35.898Z,6.17
2023-05-10T22:30:04.786Z,6.13
2023-05-10T22:32:33.902Z,6.09
2023-05-10T22:35:02.476Z,6.09
2023-05-10T22:37:30.844Z,6.04
2023-05-10T22:39:58.920Z,5.99
2023-05-10T22:42:26.984Z,5.94
2023-05-10T22:44:55.159Z,5.89
2023-05-10T22:47:23.146Z,5.82
2023-05-10T22:49:51.409Z,5.77
2023-05-10T22:52:19.609Z,5.71
2023-05-10T22:54:47.865Z,5.65
2023-05-10T22:57:17.411Z,5.62
2023-05-10T22:59:45.747Z,5.66
2023-05-10T23:02:15.043Z,5.68
2023-05-10T23:04:43.582Z,5.66
2023-05-10T23:07:12.004Z,5.65
2023-05-10T23:09:40.036Z,5.66
2023-05-10T23:12:08.461Z,5.67
2023-05-10T23:14:37.135Z,5.66
2023-05-10T23:17:05.248Z,5.59
2023-05-10T23:19:33.603Z,5.53
2023-05-10T23:22:01.664Z,5.47
2023-05-10T23:24:29.745Z,5.41
2023-05-10T23:26:57.793Z,5.36
2023-05-10T23:29:26.808Z,5.33
2023-05-10T23:31:54.991Z,5.29
2023-05-10T23:34:23.151Z,5.26
2023-05-10T23:36:51.221Z,5.23
2023-05-10T23:39:19.295Z,5.20
2023-05-10T23:41:48.089Z,5.19
2023-05-10T23:44:16.775Z,5.22
2023-05-10T23:46:44.845Z,5.20
2023-05-10T23:49:13.038Z,5.18
2023-05-10T23:51:41.223Z,5.15
2023-05-10T23:54:09.479Z,5.15
2023-05-10T23:56:37.547Z,5.16
2023-05-10T23:59:08.589Z,5.14
